Aérodrome :
LOGIN :

S'inscrire | Disclaimer

   EN    FR    IT 

 










Légende :    VFR   VFR Marginal   IFR   IFR Intensif   IFR Très Intensif
Visi : 
Plafond : 
>= 8 km
>= 3000ft
5 à 8 km
1000 à 3000 ft
1500m à 5 km
500 à 1000 ft
800 à 1500m
200 à 500 ft
< 800m
< 200 ft
Symboles :   Orages  Brouillard  Fortes neiges  Fortes précipitations  Vent > 20 kt
SIGMETs :   Divers  Orages  Givrage  Turbulence  Onde Orograph.  Cendres Volcan.







- Altitude de l'aérodrome : 19 ft
- Code IATA : LCY
- Voir les cartes d'approche


EGLC - London City

DERNIER METAR :
  • 200720Z AUTO 23009KT 210V270 5000 -RA FEW016 SCT027 BKN035 10/08 Q1016

METARs EXPIRÉS :
  • 200650Z AUTO 23009KT 6000 -RA FEW014/// BKN029/// BKN038/// //////TCU 10/08 Q1017 RERA
  • 200620Z AUTO 23007KT 7000 -RA FEW014/// SCT037/// BKN045/// //////TCU 09/08 Q1017
  • 200550Z AUTO 22004KT 7000 -RA BKN010 09/07 Q1018
  • 200520Z AUTO 22003KT 6000 -RA SCT014/// BKN040/// //////TCU 09/07 Q1018
  • 200450Z AUTO 24006KT 9999 -RA BKN014 BKN025 OVC036 09/07 Q1018

TAF AMD TAF EGLC
Valide du 20 à 06h jusqu'au 20 à 15h UTC


200644Z 2006/2015 25012KT 9999 SCT025
TEMPO 2006/2008 4500 RADZ BKN014
BECMG 2008/2011 BKN012
PROB30
TEMPO 2008/2015 26015G25KT
ATIS : +44 20 7646 0224
Pas de NOTAMs connus pour ce terrain.



MET'MAP, la Météo Aéronautique d'un coup d'oeil ! - Copyright ORBIFLY Décembre 2007 - Disclaimer

ORBIFLY MET'MAP TEAM :

Programmation & Développement : Alexandra Zaïnal
Conception & Développement : Baudouin d'Aumeries
Co-Programmation & Développement : Marc-Olivier Méhu
Soutien technique & logistique : Manuel Goepfert

Contact : metmap@orbifly.com




SOURCES & CREDITS :

   NOAA